createdAt,value
2022-08-08T00:00:52.966Z,999.50
2022-08-08T00:00:56.316Z,999.48
2022-08-08T00:02:03.134Z,999.51
2022-08-08T00:02:45.125Z,999.51
2022-08-08T00:03:43.813Z,999.51
2022-08-08T00:04:49.162Z,999.55
2022-08-08T00:06:03.447Z,999.52
2022-08-08T00:06:44.771Z,999.60
2022-08-08T00:07:43.737Z,999.58
2022-08-08T00:08:49.221Z,999.51
2022-08-08T00:09:44.721Z,999.56
2022-08-08T00:10:45.357Z,999.56
2022-08-08T00:11:46.931Z,999.55
2022-08-08T00:12:48.432Z,999.57
2022-08-08T00:14:14.815Z,999.60
2022-08-08T00:14:56.894Z,999.59
2022-08-08T00:15:56.858Z,999.56
2022-08-08T00:16:44.700Z,999.59
2022-08-08T00:18:02.577Z,999.56
2022-08-08T00:18:44.690Z,999.61
2022-08-08T00:19:46.706Z,999.59
2022-08-08T00:20:44.703Z,999.58
2022-08-08T00:21:44.135Z,999.57
2022-08-08T00:22:43.631Z,999.59
2022-08-08T00:23:47.641Z,999.58
2022-08-08T00:24:45.610Z,999.54
2022-08-08T00:25:46.720Z,999.65
2022-08-08T00:26:44.619Z,999.61
2022-08-08T00:27:43.593Z,999.68
2022-08-08T00:28:44.248Z,999.69
2022-08-08T00:29:45.339Z,999.66
2022-08-08T00:30:45.225Z,999.64
2022-08-08T00:32:15.011Z,999.68
2022-08-08T00:32:45.207Z,999.68
2022-08-08T00:34:18.254Z,999.74
2022-08-08T00:34:45.169Z,999.67
2022-08-08T00:35:43.506Z,999.67
2022-08-08T00:36:45.536Z,999.71
2022-08-08T00:37:48.193Z,999.69
2022-08-08T00:38:55.923Z,999.72
2022-08-08T00:41:10.275Z,999.64
2022-08-08T00:41:12.144Z,999.66
2022-08-08T00:41:45.276Z,999.70
2022-08-08T00:42:44.563Z,999.73
2022-08-08T00:43:45.889Z,999.71
2022-08-08T00:44:44.103Z,999.65
2022-08-08T00:45:43.435Z,999.72
2022-08-08T00:46:57.370Z,999.66
2022-08-08T00:48:05.464Z,999.64
2022-08-08T00:48:59.035Z,999.70
2022-08-08T00:49:58.443Z,999.70
2022-08-08T00:50:48.250Z,999.71
2022-08-08T00:51:44.425Z,999.71
2022-08-08T00:52:48.780Z,999.65
2022-08-08T00:54:04.515Z,999.71
2022-08-08T00:54:45.746Z,999.68
2022-08-08T00:55:53.766Z,999.69
2022-08-08T00:56:44.832Z,999.74
2022-08-08T00:57:43.342Z,999.75
2022-08-08T00:58:54.171Z,999.72
2022-08-08T00:59:46.444Z,999.77
2022-08-08T01:00:43.417Z,999.76
2022-08-08T01:01:44.402Z,999.70
2022-08-08T01:03:58.733Z,999.71
2022-08-08T01:04:02.348Z,999.70
2022-08-08T01:04:44.287Z,999.72
2022-08-08T01:05:59.156Z,999.77
2022-08-08T01:06:44.299Z,999.67
2022-08-08T01:07:55.724Z,999.67
2022-08-08T01:08:50.245Z,999.72
2022-08-08T01:09:48.708Z,999.77
2022-08-08T01:10:43.246Z,999.68
2022-08-08T01:11:43.262Z,999.71
2022-08-08T01:12:44.226Z,999.69
2022-08-08T01:13:44.487Z,999.75
2022-08-08T01:14:53.748Z,999.66
2022-08-08T01:15:53.199Z,999.72
2022-08-08T01:16:44.218Z,999.72
2022-08-08T01:17:53.852Z,999.70
2022-08-08T01:18:53.593Z,999.71
2022-08-08T01:20:01.531Z,999.69
2022-08-08T01:20:44.769Z,999.71
2022-08-08T01:22:10.091Z,999.73
2022-08-08T01:22:44.148Z,999.68
2022-08-08T01:24:05.930Z,999.75
2022-08-08T01:24:44.129Z,999.72
2022-08-08T01:25:44.124Z,999.72
2022-08-08T01:26:49.114Z,999.67
2022-08-08T01:27:46.224Z,999.63
2022-08-08T01:28:43.100Z,999.68
2022-08-08T01:29:58.709Z,999.65
2022-08-08T01:30:45.766Z,999.68
2022-08-08T01:32:13.237Z,999.68
2022-08-08T01:32:44.068Z,999.69
2022-08-08T01:34:00.070Z,999.68
2022-08-08T01:34:44.052Z,999.72
2022-08-08T01:35:43.050Z,999.73
2022-08-08T01:36:43.032Z,999.70
2022-08-08T01:37:58.154Z,999.74
2022-08-08T01:38:44.028Z,999.75
2022-08-08T01:39:43.082Z,999.77
2022-08-08T01:40:43.015Z,999.73
2022-08-08T01:41:43.794Z,999.75
2022-08-08T01:42:43.023Z,999.76
2022-08-08T01:43:42.982Z,999.78
2022-08-08T01:44:43.986Z,999.74
2022-08-08T01:45:43.972Z,999.78
2022-08-08T01:46:43.962Z,999.71
2022-08-08T01:48:14.277Z,999.73
2022-08-08T01:48:46.275Z,999.70
2022-08-08T01:49:42.947Z,999.70
2022-08-08T01:50:42.989Z,999.68
2022-08-08T01:52:32.543Z,999.72
2022-08-08T01:54:00.888Z,999.70
2022-08-08T01:55:15.792Z,999.65
2022-08-08T01:55:26.313Z,999.71
2022-08-08T01:56:26.894Z,999.66
2022-08-08T01:56:46.910Z,999.71
2022-08-08T01:58:11.921Z,999.66
2022-08-08T01:58:47.250Z,999.62
2022-08-08T02:00:02.462Z,999.74
2022-08-08T02:00:43.902Z,999.70
2022-08-08T02:02:00.293Z,999.69
2022-08-08T02:02:44.192Z,999.68
2022-08-08T02:03:57.552Z,999.73
2022-08-08T02:04:43.830Z,999.72
2022-08-08T02:05:56.185Z,999.65
2022-08-08T02:06:43.851Z,999.67
2022-08-08T02:07:48.792Z,999.65
2022-08-08T02:08:45.584Z,999.68
2022-08-08T02:10:03.324Z,999.69
2022-08-08T02:10:45.020Z,999.69
2022-08-08T02:11:52.886Z,999.67
2022-08-08T02:12:43.792Z,999.66
2022-08-08T02:13:52.325Z,999.68
2022-08-08T02:14:55.240Z,999.69
2022-08-08T02:15:43.741Z,999.65
2022-08-08T02:16:42.941Z,999.64
2022-08-08T02:17:43.591Z,999.67
2022-08-08T02:18:42.715Z,999.64
2022-08-08T02:20:07.847Z,999.78
2022-08-08T02:21:00.752Z,999.65
2022-08-08T02:21:43.697Z,999.77
2022-08-08T02:22:52.690Z,999.72
2022-08-08T02:23:43.683Z,999.79
2022-08-08T02:24:44.342Z,999.77
2022-08-08T02:25:47.306Z,999.79
2022-08-08T02:26:43.655Z,999.82
2022-08-08T02:27:43.905Z,999.81
2022-08-08T02:28:42.643Z,999.77
2022-08-08T02:29:51.696Z,999.77
2022-08-08T02:30:50.070Z,999.78
2022-08-08T02:31:59.506Z,999.74
2022-08-08T02:32:43.639Z,999.78
2022-08-08T02:34:08.326Z,999.75
2022-08-08T02:35:10.935Z,999.74
2022-08-08T02:36:03.869Z,999.71
2022-08-08T02:36:43.576Z,999.71
2022-08-08T02:37:53.390Z,999.75
2022-08-08T02:38:44.821Z,999.73
2022-08-08T02:39:58.326Z,999.72
2022-08-08T02:40:45.216Z,999.74
2022-08-08T02:41:59.030Z,999.78
2022-08-08T02:42:43.557Z,999.79
2022-08-08T02:44:38.197Z,999.74
2022-08-08T02:44:56.735Z,999.71
2022-08-08T02:45:53.971Z,999.72
2022-08-08T02:46:43.940Z,999.78
2022-08-08T02:47:46.983Z,999.82
2022-08-08T02:48:45.308Z,999.80
2022-08-08T02:49:50.768Z,999.78
2022-08-08T02:50:47.253Z,999.81
2022-08-08T02:51:55.606Z,999.82
2022-08-08T02:52:43.610Z,999.84
2022-08-08T02:53:43.441Z,999.85
2022-08-08T02:54:42.438Z,999.82
2022-08-08T02:55:42.430Z,999.74
2022-08-08T02:56:42.425Z,999.78
2022-08-08T02:57:44.872Z,999.75
2022-08-08T02:58:42.437Z,999.80
2022-08-08T02:59:57.868Z,999.76
2022-08-08T03:00:50.568Z,999.74
2022-08-08T03:01:50.172Z,999.79
2022-08-08T03:02:43.375Z,999.77
2022-08-08T03:05:00.723Z,999.74
2022-08-08T03:05:04.488Z,999.75
2022-08-08T03:05:45.365Z,999.71
2022-08-08T03:06:42.346Z,999.76
2022-08-08T03:07:58.324Z,999.69
2022-08-08T03:08:44.328Z,999.83
2022-08-08T03:09:43.323Z,999.83
2022-08-08T03:10:44.682Z,999.74
2022-08-08T03:12:01.953Z,999.82
2022-08-08T03:13:02.081Z,999.77
2022-08-08T03:15:57.395Z,999.79
2022-08-08T03:15:57.766Z,999.78
2022-08-08T03:15:59.846Z,999.79
2022-08-08T03:16:43.529Z,999.83
2022-08-08T03:17:43.281Z,999.80
2022-08-08T03:18:43.250Z,999.83
2022-08-08T03:19:50.719Z,999.77
2022-08-08T03:20:43.237Z,999.81
2022-08-08T03:21:58.884Z,999.84
2022-08-08T03:22:43.259Z,999.88
2022-08-08T03:23:59.303Z,999.94
2022-08-08T03:24:43.202Z,999.89
2022-08-08T03:25:42.198Z,999.88
2022-08-08T03:26:43.092Z,999.96
2022-08-08T03:27:42.288Z,999.98
2022-08-08T03:28:42.204Z,1000.00
2022-08-08T03:29:55.190Z,999.98
2022-08-08T03:30:43.155Z,999.98
2022-08-08T03:32:05.828Z,999.99
2022-08-08T03:32:53.330Z,999.94
2022-08-08T03:34:00.274Z,999.99
2022-08-08T03:34:43.123Z,999.97
2022-08-08T03:35:42.116Z,999.93
2022-08-08T03:36:42.108Z,999.96
2022-08-08T03:38:52.944Z,999.98
2022-08-08T03:38:58.136Z,999.99
2022-08-08T03:39:51.706Z,1000.03
2022-08-08T03:40:43.138Z,999.98
2022-08-08T03:42:27.761Z,999.94
2022-08-08T03:42:47.531Z,999.98
2022-08-08T03:43:42.073Z,999.98
2022-08-08T03:44:47.829Z,999.97
2022-08-08T03:46:05.322Z,999.97
2022-08-08T03:46:43.029Z,999.99
2022-08-08T03:47:46.015Z,1000.03
2022-08-08T03:49:30.995Z,999.93
2022-08-08T03:49:59.720Z,999.99
2022-08-08T03:50:43.000Z,1000.03
2022-08-08T03:51:51.586Z,999.97
2022-08-08T03:52:44.493Z,999.97
2022-08-08T03:53:47.384Z,1000.00
2022-08-08T03:55:02.583Z,1000.03
2022-08-08T03:55:57.189Z,1000.03
2022-08-08T03:56:42.953Z,999.99
2022-08-08T03:58:35.689Z,999.99
2022-08-08T03:58:47.933Z,999.93
2022-08-08T04:00:02.558Z,999.99
2022-08-08T04:01:01.446Z,999.97
2022-08-08T04:02:13.174Z,1000.05
2022-08-08T04:02:47.429Z,999.93
2022-08-08T04:03:59.154Z,1000.00
2022-08-08T04:04:42.965Z,999.93
2022-08-08T04:05:47.291Z,999.89
2022-08-08T04:06:42.869Z,999.89
2022-08-08T04:07:41.870Z,999.94
2022-08-08T04:08:41.880Z,999.95
2022-08-08T04:09:58.972Z,999.95
2022-08-08T04:10:42.844Z,999.93
2022-08-08T04:11:59.221Z,999.93
2022-08-08T04:12:42.831Z,999.96
2022-08-08T04:14:03.581Z,999.90
2022-08-08T04:14:45.253Z,999.89
2022-08-08T04:15:54.817Z,999.96
2022-08-08T04:16:42.800Z,999.93
2022-08-08T04:17:46.084Z,999.95
2022-08-08T04:18:44.815Z,1000.05
2022-08-08T04:19:42.777Z,999.98
2022-08-08T04:20:41.764Z,1000.03
2022-08-08T04:21:45.616Z,1000.03
2022-08-08T04:22:41.757Z,1000.09
2022-08-08T04:24:18.856Z,1000.12
2022-08-08T04:24:42.739Z,1000.08
2022-08-08T04:25:42.736Z,1000.13
2022-08-08T04:26:58.044Z,1000.15
2022-08-08T04:28:03.054Z,1000.17
2022-08-08T04:28:42.735Z,1000.19
2022-08-08T04:29:55.066Z,1000.19
2022-08-08T04:30:44.263Z,1000.19
2022-08-08T04:31:59.473Z,1000.29
2022-08-08T04:32:42.968Z,1000.33
2022-08-08T04:33:42.696Z,1000.34
2022-08-08T04:34:49.211Z,1000.29
2022-08-08T04:35:51.089Z,1000.28
2022-08-08T04:36:42.643Z,1000.34
2022-08-08T04:37:41.633Z,1000.35
2022-08-08T04:38:42.744Z,1000.40
2022-08-08T04:40:03.404Z,1000.37
2022-08-08T04:40:42.642Z,1000.44
2022-08-08T04:41:42.601Z,1000.45
2022-08-08T04:42:46.517Z,1000.45
2022-08-08T04:43:46.289Z,1000.43
2022-08-08T04:44:42.577Z,1000.51
2022-08-08T04:45:42.577Z,1000.42
2022-08-08T04:46:41.564Z,1000.53
2022-08-08T04:47:46.466Z,1000.50
2022-08-08T04:48:42.632Z,1000.53
2022-08-08T04:50:00.518Z,1000.48
2022-08-08T04:50:45.984Z,1000.55
2022-08-08T04:51:54.980Z,1000.54
2022-08-08T04:52:42.518Z,1000.52
2022-08-08T04:54:30.294Z,1000.58
2022-08-08T04:54:42.720Z,1000.58
2022-08-08T04:55:55.467Z,1000.61
2022-08-08T04:56:42.492Z,1000.59
2022-08-08T04:57:41.482Z,1000.58
2022-08-08T04:58:41.483Z,1000.68
2022-08-08T04:59:41.949Z,1000.65
2022-08-08T05:00:41.464Z,1000.65
2022-08-08T05:01:48.254Z,1000.65
2022-08-08T05:02:42.559Z,1000.73
2022-08-08T05:04:07.356Z,1000.74
2022-08-08T05:04:44.337Z,1000.70
2022-08-08T05:05:44.426Z,1000.77
2022-08-08T05:06:41.418Z,1000.73
2022-08-08T05:07:42.631Z,1000.76
2022-08-08T05:08:41.399Z,1000.81
2022-08-08T05:09:41.415Z,1000.75
2022-08-08T05:10:41.390Z,1000.83
2022-08-08T05:11:41.379Z,1000.87
2022-08-08T05:12:53.515Z,1000.84
2022-08-08T05:13:58.605Z,1000.89
2022-08-08T05:14:42.380Z,1000.96
2022-08-08T05:16:47.741Z,1000.87
2022-08-08T05:16:51.794Z,1000.87
2022-08-08T05:17:54.500Z,1000.96
2022-08-08T05:18:42.331Z,1000.75
2022-08-08T05:20:11.230Z,1000.88
2022-08-08T05:20:48.412Z,1000.92
2022-08-08T05:21:57.859Z,1000.97
2022-08-08T05:22:42.301Z,1000.94
2022-08-08T05:23:46.024Z,1000.86
2022-08-08T05:24:41.311Z,1000.88
2022-08-08T05:25:42.272Z,1000.90
2022-08-08T05:26:41.266Z,1000.97
2022-08-08T05:27:44.366Z,1000.89
2022-08-08T05:28:55.779Z,1000.89
2022-08-08T05:29:42.271Z,1000.91
2022-08-08T05:30:41.241Z,1000.91
2022-08-08T05:32:03.246Z,1000.96
2022-08-08T05:32:42.883Z,1000.85
2022-08-08T05:33:48.278Z,1000.88
2022-08-08T05:34:42.238Z,1000.92
2022-08-08T05:35:41.199Z,1000.88
2022-08-08T05:36:41.194Z,1000.95
2022-08-08T05:37:52.658Z,1000.92
2022-08-08T05:38:42.218Z,1000.97
2022-08-08T05:39:41.267Z,1001.01
2022-08-08T05:40:41.175Z,1000.93
2022-08-08T05:41:54.799Z,1000.97
2022-08-08T05:42:42.154Z,1001.05
2022-08-08T05:44:03.398Z,1000.99
2022-08-08T05:44:42.172Z,1001.03
2022-08-08T05:45:41.609Z,1001.00
2022-08-08T05:46:42.128Z,1001.02
2022-08-08T05:48:00.731Z,1001.04
2022-08-08T05:48:42.504Z,1001.04
2022-08-08T05:49:41.137Z,1001.01
2022-08-08T05:50:42.096Z,1001.00
2022-08-08T05:51:48.165Z,1001.04
2022-08-08T05:52:42.415Z,1001.04
2022-08-08T05:54:25.954Z,1001.04
2022-08-08T05:54:49.718Z,1001.05
2022-08-08T05:56:11.458Z,1001.03
2022-08-08T05:56:47.030Z,1001.01
2022-08-08T05:58:05.255Z,1001.01
2022-08-08T05:58:53.671Z,1001.08
2022-08-08T06:00:00.958Z,1001.05
2022-08-08T06:00:44.496Z,1001.11
2022-08-08T06:01:55.589Z,1001.09
2022-08-08T06:02:43.873Z,1001.13
2022-08-08T06:03:41.950Z,1001.12
2022-08-08T06:04:41.028Z,1001.18
2022-08-08T06:05:42.001Z,1001.17
2022-08-08T06:06:40.990Z,1001.16
2022-08-08T06:07:43.808Z,1001.12
2022-08-08T06:08:40.978Z,1001.17
2022-08-08T06:10:01.312Z,1001.11
2022-08-08T06:10:41.964Z,1001.14
2022-08-08T06:11:40.960Z,1001.18
2022-08-08T06:12:41.946Z,1001.21
2022-08-08T06:13:46.987Z,1001.14
2022-08-08T06:14:48.761Z,1001.23
2022-08-08T06:15:50.652Z,1001.26
2022-08-08T06:16:41.920Z,1001.22
2022-08-08T06:18:18.335Z,1001.26
2022-08-08T06:18:41.910Z,1001.24
2022-08-08T06:19:41.012Z,1001.32
2022-08-08T06:20:40.905Z,1001.23
2022-08-08T06:21:51.745Z,1001.24
2022-08-08T06:22:42.217Z,1001.20
2022-08-08T06:24:02.199Z,1001.20
2022-08-08T06:24:50.952Z,1001.23
2022-08-08T06:26:43.712Z,1001.25
2022-08-08T06:26:44.104Z,1001.24
2022-08-08T06:27:43.749Z,1001.29
2022-08-08T06:28:41.854Z,1001.28
2022-08-08T06:29:56.730Z,1001.28
2022-08-08T06:30:41.861Z,1001.28
2022-08-08T06:31:52.866Z,1001.30
2022-08-08T06:32:41.831Z,1001.32
2022-08-08T06:34:27.359Z,1001.35
2022-08-08T06:34:41.837Z,1001.36
2022-08-08T06:36:06.739Z,1001.33
2022-08-08T06:36:41.865Z,1001.35
2022-08-08T06:37:43.123Z,1001.34
2022-08-08T06:38:40.796Z,1001.32
2022-08-08T06:39:56.213Z,1001.32
2022-08-08T06:40:48.553Z,1001.31
2022-08-08T06:41:41.778Z,1001.27
2022-08-08T06:42:41.773Z,1001.32
2022-08-08T06:43:40.765Z,1001.29
2022-08-08T06:44:42.608Z,1001.26
2022-08-08T06:45:41.762Z,1001.22
2022-08-08T06:46:40.924Z,1001.28
2022-08-08T06:47:52.647Z,1001.27
2022-08-08T06:48:42.402Z,1001.26
2022-08-08T06:49:55.559Z,1001.21
2022-08-08T06:50:41.749Z,1001.26
2022-08-08T06:51:46.906Z,1001.28
2022-08-08T06:52:42.988Z,1001.26
2022-08-08T06:53:50.763Z,1001.19
2022-08-08T06:54:41.735Z,1001.26
2022-08-08T06:55:41.733Z,1001.21
2022-08-08T06:56:40.699Z,1001.25
2022-08-08T06:57:53.719Z,1001.22
2022-08-08T06:58:41.682Z,1001.22
2022-08-08T07:00:10.236Z,1001.18
2022-08-08T07:00:41.710Z,1001.20
2022-08-08T07:02:17.127Z,1001.27
2022-08-08T07:02:45.082Z,1001.23
2022-08-08T07:04:36.004Z,1001.27
2022-08-08T07:04:44.282Z,1001.27
2022-08-08T07:05:42.648Z,1001.29
2022-08-08T07:06:41.638Z,1001.26
2022-08-08T07:07:40.639Z,1001.25
2022-08-08T07:08:40.635Z,1001.26
2022-08-08T07:09:45.811Z,1001.27
2022-08-08T07:10:46.010Z,1001.22
2022-08-08T07:11:50.829Z,1001.27
2022-08-08T07:12:42.784Z,1001.27
2022-08-08T07:14:00.380Z,1001.24
2022-08-08T07:14:41.629Z,1001.22
2022-08-08T07:16:05.400Z,1001.25
2022-08-08T07:16:51.035Z,1001.27
2022-08-08T07:18:01.442Z,1001.32
2022-08-08T07:18:41.809Z,1001.34
2022-08-08T07:19:40.603Z,1001.31
2022-08-08T07:20:50.407Z,1001.35
2022-08-08T07:21:41.556Z,1001.37
2022-08-08T07:22:40.554Z,1001.31
2022-08-08T07:24:02.227Z,1001.34
2022-08-08T07:24:41.568Z,1001.33
2022-08-08T07:25:44.158Z,1001.24
2022-08-08T07:26:42.534Z,1001.26
2022-08-08T07:28:00.793Z,1001.27
2022-08-08T07:28:41.557Z,1001.29
2022-08-08T07:30:02.361Z,1001.21
2022-08-08T07:30:41.553Z,1001.22
2022-08-08T07:31:40.506Z,1001.23
2022-08-08T07:32:40.500Z,1001.24
2022-08-08T07:33:53.423Z,1001.24
2022-08-08T07:34:59.379Z,1001.15
2022-08-08T07:35:41.502Z,1001.12
2022-08-08T07:36:48.268Z,1001.13
2022-08-08T07:37:55.664Z,1001.11
2022-08-08T07:38:41.460Z,1001.18
2022-08-08T07:39:45.435Z,1001.22
2022-08-08T07:40:41.528Z,1001.19
2022-08-08T07:41:58.918Z,1001.24
2022-08-08T07:42:41.440Z,1001.12
2022-08-08T07:43:40.433Z,1001.19
2022-08-08T07:44:43.654Z,1001.17
2022-08-08T07:46:05.339Z,1001.16
2022-08-08T07:46:42.412Z,1001.17
2022-08-08T07:47:40.716Z,1001.09
2022-08-08T07:48:42.163Z,1001.15
2022-08-08T07:49:40.498Z,1001.19
2022-08-08T07:50:40.428Z,1001.16
2022-08-08T07:51:53.008Z,1001.25
2022-08-08T07:52:43.887Z,1001.20
2022-08-08T07:54:00.738Z,1001.23
2022-08-08T07:54:41.376Z,1001.17
2022-08-08T07:55:40.398Z,1001.22
2022-08-08T07:56:40.364Z,1001.27
2022-08-08T07:57:48.293Z,1001.24
2022-08-08T07:58:42.357Z,1001.25
2022-08-08T07:59:40.354Z,1001.30
2022-08-08T08:00:40.411Z,1001.28
2022-08-08T08:02:35.578Z,1001.24
2022-08-08T08:02:41.714Z,1001.29
2022-08-08T08:03:41.523Z,1001.18
2022-08-08T08:04:41.332Z,1001.32
2022-08-08T08:05:40.335Z,1001.27
2022-08-08T08:06:41.838Z,1001.34
2022-08-08T08:07:40.756Z,1001.38
2022-08-08T08:08:41.882Z,1001.39
2022-08-08T08:09:41.276Z,1001.39
2022-08-08T08:10:40.303Z,1001.27
2022-08-08T08:11:51.396Z,1001.21
2022-08-08T08:12:43.081Z,1001.16
2022-08-08T08:14:05.915Z,1001.17
2022-08-08T08:14:41.246Z,1001.17
2022-08-08T08:15:40.276Z,1001.13
2022-08-08T08:16:41.165Z,1001.16
2022-08-08T08:17:48.661Z,1001.19
2022-08-08T08:18:52.058Z,1001.19
2022-08-08T08:19:45.054Z,1001.15
2022-08-08T08:20:40.237Z,1001.14
2022-08-08T08:21:52.861Z,1001.10
2022-08-08T08:22:41.203Z,1001.13
2022-08-08T08:23:40.646Z,1001.18
2022-08-08T08:24:42.937Z,1001.15
2022-08-08T08:25:45.964Z,1001.09
2022-08-08T08:26:46.853Z,1001.12
2022-08-08T08:27:46.575Z,1001.20
2022-08-08T08:28:41.155Z,1001.18
2022-08-08T08:29:40.157Z,1001.17
2022-08-08T08:30:40.178Z,1001.16
2022-08-08T08:31:42.239Z,1001.10
2022-08-08T08:32:49.284Z,1001.12
2022-08-08T08:33:41.128Z,1001.15
2022-08-08T08:34:42.529Z,1001.20
2022-08-08T08:36:19.921Z,1001.22
2022-08-08T08:36:41.114Z,1001.17
2022-08-08T08:37:58.895Z,1001.15
2022-08-08T08:38:49.970Z,1001.18
2022-08-08T08:40:01.215Z,1001.11
2022-08-08T08:40:41.115Z,1001.22
2022-08-08T08:41:40.096Z,1001.13
2022-08-08T08:42:40.070Z,1001.08
2022-08-08T08:43:42.522Z,1001.11
2022-08-08T08:44:41.057Z,1001.14
2022-08-08T08:45:40.060Z,1001.17
2022-08-08T08:46:40.074Z,1001.14
2022-08-08T08:47:43.890Z,1001.12
2022-08-08T08:48:41.921Z,1001.14
2022-08-08T08:49:42.929Z,1001.18
2022-08-08T08:50:41.040Z,1001.11
2022-08-08T08:51:50.918Z,1001.13
2022-08-08T08:52:57.478Z,1001.09
2022-08-08T08:53:55.335Z,1001.07
2022-08-08T08:54:40.994Z,1001.13
2022-08-08T08:55:40.197Z,1001.12
2022-08-08T08:56:40.009Z,1001.12
2022-08-08T08:57:39.974Z,1001.10
2022-08-08T08:58:39.991Z,1001.14
2022-08-08T08:59:59.392Z,1001.16
2022-08-08T09:01:04.850Z,1001.15
2022-08-08T09:01:43.752Z,1001.09
2022-08-08T09:02:41.175Z,1001.04
2022-08-08T09:03:45.885Z,1001.09
2022-08-08T09:04:45.597Z,1001.05
2022-08-08T09:05:54.528Z,1001.02
2022-08-08T09:06:50.146Z,1001.07
2022-08-08T09:07:52.356Z,1001.01
2022-08-08T09:08:41.900Z,1001.00
2022-08-08T09:09:48.331Z,1000.98
2022-08-08T09:10:40.891Z,1001.01
2022-08-08T09:11:47.458Z,1000.99
2022-08-08T09:12:40.870Z,1001.00
2022-08-08T09:13:39.867Z,1000.97
2022-08-08T09:14:42.758Z,1000.88
2022-08-08T09:15:43.313Z,1000.94
2022-08-08T09:16:40.223Z,1000.92
2022-08-08T09:17:52.341Z,1000.94
2022-08-08T09:18:40.831Z,1000.98
2022-08-08T09:21:57.484Z,1000.96
2022-08-08T09:21:58.978Z,1001.01
2022-08-08T09:22:01.007Z,1001.00
2022-08-08T09:22:40.806Z,1000.95
2022-08-08T09:23:40.845Z,1000.92
2022-08-08T09:24:40.123Z,1000.91
2022-08-08T09:25:54.788Z,1000.94
2022-08-08T09:26:40.809Z,1000.95
2022-08-08T09:27:56.670Z,1000.93
2022-08-08T09:28:40.768Z,1000.93
2022-08-08T09:29:39.840Z,1000.85
2022-08-08T09:30:40.832Z,1001.00
2022-08-08T09:31:42.798Z,1000.88
2022-08-08T09:32:40.734Z,1000.97
2022-08-08T09:34:14.817Z,1000.93
2022-08-08T09:34:45.493Z,1000.93
2022-08-08T09:35:49.078Z,1000.90
2022-08-08T09:36:40.731Z,1000.86
2022-08-08T09:38:00.898Z,1000.88
2022-08-08T09:38:52.392Z,1000.86
2022-08-08T09:39:40.703Z,1000.81
2022-08-08T09:40:47.762Z,1000.80
2022-08-08T09:42:15.010Z,1000.71
2022-08-08T09:42:44.424Z,1000.76
2022-08-08T09:44:06.614Z,1000.76
2022-08-08T09:44:40.795Z,1000.85
2022-08-08T09:45:54.866Z,1000.82
2022-08-08T09:46:40.668Z,1000.73
2022-08-08T09:48:04.297Z,1000.77
2022-08-08T09:48:42.905Z,1000.74
2022-08-08T09:49:42.678Z,1000.78
2022-08-08T09:50:44.120Z,1000.73
2022-08-08T09:52:01.782Z,1000.73
2022-08-08T09:52:59.332Z,1000.69
2022-08-08T09:53:59.383Z,1000.68
2022-08-08T09:54:40.872Z,1000.66
2022-08-08T09:56:03.370Z,1000.73
2022-08-08T09:56:41.254Z,1000.70
2022-08-08T09:57:46.154Z,1000.79
2022-08-08T09:58:41.750Z,1000.67
2022-08-08T10:00:01.765Z,1000.64
2022-08-08T10:00:56.843Z,1000.67
2022-08-08T10:02:01.983Z,1000.64
2022-08-08T10:02:40.525Z,1000.57
2022-08-08T10:03:40.524Z,1000.63
2022-08-08T10:04:42.359Z,1000.62
2022-08-08T10:05:40.544Z,1000.53
2022-08-08T10:06:39.525Z,1000.58
2022-08-08T10:07:43.438Z,1000.59
2022-08-08T10:08:39.487Z,1000.51
2022-08-08T10:10:00.965Z,1000.53
2022-08-08T10:10:41.619Z,1000.58
2022-08-08T10:12:27.444Z,1000.58
2022-08-08T10:12:54.136Z,1000.57
2022-08-08T10:13:42.939Z,1000.54
2022-08-08T10:14:39.580Z,1000.58
2022-08-08T10:15:39.518Z,1000.53
2022-08-08T10:16:39.435Z,1000.56
2022-08-08T10:18:06.627Z,1000.49
2022-08-08T10:18:40.418Z,1000.51
2022-08-08T10:19:57.485Z,1000.49
2022-08-08T10:20:44.546Z,1000.50
2022-08-08T10:21:42.240Z,1000.34
2022-08-08T10:22:40.451Z,1000.48
2022-08-08T10:23:42.097Z,1000.44
2022-08-08T10:24:39.355Z,1000.54
2022-08-08T10:25:54.276Z,1000.48
2022-08-08T10:26:56.819Z,1000.49
2022-08-08T10:27:40.364Z,1000.45
2022-08-08T10:28:39.334Z,1000.47
2022-08-08T10:29:57.006Z,1000.39
2022-08-08T10:30:57.044Z,1000.40
2022-08-08T10:31:46.851Z,1000.38
2022-08-08T10:32:48.333Z,1000.33
2022-08-08T10:34:18.667Z,1000.26
2022-08-08T10:34:40.296Z,1000.27
2022-08-08T10:36:19.409Z,1000.13
2022-08-08T10:36:40.271Z,1000.33
2022-08-08T10:37:39.289Z,1000.34
2022-08-08T10:38:40.478Z,1000.39
2022-08-08T10:39:43.346Z,1000.34
2022-08-08T10:40:40.245Z,1000.32
2022-08-08T10:41:58.602Z,1000.39
2022-08-08T10:42:41.251Z,1000.39
2022-08-08T10:43:39.218Z,1000.27
2022-08-08T10:44:39.214Z,1000.38
2022-08-08T10:45:41.307Z,1000.44
2022-08-08T10:46:39.194Z,1000.26
2022-08-08T10:47:43.068Z,1000.32
2022-08-08T10:48:56.670Z,1000.32
2022-08-08T10:50:02.334Z,1000.28
2022-08-08T10:50:40.175Z,1000.24
2022-08-08T10:51:47.032Z,1000.21
2022-08-08T10:52:40.175Z,1000.26
2022-08-08T10:53:56.525Z,1000.24
2022-08-08T10:54:41.505Z,1000.22
2022-08-08T10:55:46.399Z,1000.19
2022-08-08T10:56:43.263Z,1000.23
2022-08-08T10:57:47.966Z,1000.24
2022-08-08T10:58:54.603Z,1000.25
2022-08-08T10:59:40.883Z,1000.26
2022-08-08T11:00:48.642Z,1000.26
2022-08-08T11:01:41.122Z,1000.25
2022-08-08T11:02:39.104Z,1000.26
2022-08-08T11:04:00.505Z,1000.23
2022-08-08T11:04:40.062Z,1000.23
2022-08-08T11:05:39.253Z,1000.23
2022-08-08T11:06:42.005Z,1000.25
2022-08-08T11:08:38.865Z,1000.30
2022-08-08T11:08:42.943Z,1000.23
2022-08-08T11:09:41.017Z,1000.32
2022-08-08T11:10:39.010Z,1000.22
2022-08-08T11:12:05.608Z,1000.27
2022-08-08T11:12:40.017Z,1000.11
2022-08-08T11:13:39.986Z,1000.19
2022-08-08T11:59:02.742Z,999.96
2022-08-08T12:00:06.222Z,1000.10
2022-08-08T12:01:03.858Z,1000.05
2022-08-08T12:02:28.592Z,999.96
2022-08-08T12:03:05.930Z,1000.00
2022-08-08T12:04:03.979Z,1000.02
2022-08-08T12:05:03.820Z,1000.02
2022-08-08T12:06:03.811Z,999.91
2022-08-08T12:07:04.432Z,999.95
2022-08-08T12:08:04.348Z,999.96
2022-08-08T12:09:03.794Z,1000.11
2022-08-08T12:10:08.661Z,1000.11
2022-08-08T12:11:05.767Z,999.86
2022-08-08T12:12:03.863Z,999.97
2022-08-08T12:13:03.862Z,999.96
2022-08-08T12:14:04.541Z,999.94
2022-08-08T12:15:05.066Z,999.95
2022-08-08T12:16:03.825Z,999.95
2022-08-08T12:17:03.867Z,999.96
2022-08-08T12:18:03.831Z,1000.03
2022-08-08T12:19:05.908Z,1000.04
2022-08-08T12:20:03.873Z,999.97
2022-08-08T12:21:03.775Z,1000.02
2022-08-08T12:22:05.325Z,999.94
2022-08-08T12:23:03.717Z,999.99
2022-08-08T12:24:03.674Z,999.95
2022-08-08T12:25:03.676Z,999.93
2022-08-08T12:26:03.662Z,999.95
2022-08-08T12:27:03.654Z,999.87
2022-08-08T12:28:04.668Z,999.98
2022-08-08T12:29:03.638Z,999.89
2022-08-08T12:30:04.489Z,999.89
2022-08-08T12:31:03.620Z,999.85
2022-08-08T12:32:03.621Z,999.79
2022-08-08T12:33:08.761Z,999.75
2022-08-08T12:34:03.601Z,999.78
2022-08-08T12:35:13.732Z,999.76
2022-08-08T12:36:04.587Z,999.75
2022-08-08T12:37:03.586Z,999.71
2022-08-08T12:38:03.622Z,999.63
2022-08-08T12:39:06.605Z,999.75
2022-08-08T12:40:03.563Z,999.71
2022-08-08T12:41:05.744Z,999.73
2022-08-08T12:42:04.854Z,999.78
2022-08-08T12:43:03.888Z,999.88
2022-08-08T12:44:03.545Z,999.79
2022-08-08T12:45:03.521Z,999.76
2022-08-08T12:46:04.522Z,999.70
2022-08-08T12:47:03.503Z,999.77
2022-08-08T12:48:10.373Z,999.71
2022-08-08T12:50:05.489Z,999.70
2022-08-08T12:51:03.538Z,999.74
2022-08-08T12:52:03.469Z,999.66
2022-08-08T12:53:03.498Z,999.74
2022-08-08T12:54:04.539Z,999.72
2022-08-08T12:55:04.449Z,999.76
2022-08-08T12:56:18.422Z,999.65
2022-08-08T12:57:05.432Z,999.65
2022-08-08T12:58:03.459Z,999.73
2022-08-08T12:59:03.419Z,999.77